createdAt,value
2018-08-25T00:01:42.588Z,60.43
2018-08-25T00:04:10.240Z,60.94
2018-08-25T00:06:37.901Z,61.42
2018-08-25T00:09:08.677Z,59.34
2018-08-25T00:11:36.288Z,59.30
2018-08-25T00:14:03.962Z,59.95
2018-08-25T00:16:31.555Z,60.76
2018-08-25T00:18:59.144Z,60.38
2018-08-25T00:21:26.759Z,60.43
2018-08-25T00:23:54.427Z,60.66
2018-08-25T00:26:22.017Z,59.94
2018-08-25T00:28:49.696Z,59.52
2018-08-25T00:31:21.330Z,59.53
2018-08-25T00:33:49.078Z,59.34
2018-08-25T00:36:16.717Z,59.38
2018-08-25T00:38:44.429Z,59.70
2018-08-25T00:41:12.275Z,59.73
2018-08-25T00:43:39.934Z,59.72
2018-08-25T00:46:07.705Z,59.69
2018-08-25T00:48:35.418Z,59.31
2018-08-25T00:51:03.333Z,59.09
2018-08-25T00:53:30.970Z,59.64
2018-08-25T00:55:58.625Z,59.08
2018-08-25T00:58:26.289Z,59.72
2018-08-25T01:00:54.022Z,59.64
2018-08-25T01:03:21.645Z,60.49
2018-08-25T01:05:49.313Z,62.04
2018-08-25T01:08:16.968Z,62.30
2018-08-25T01:10:44.609Z,62.33
2018-08-25T01:13:12.312Z,62.37
2018-08-25T01:15:40.016Z,62.65
2018-08-25T01:18:07.652Z,62.62
2018-08-25T01:20:35.415Z,61.81
2018-08-25T01:23:03.019Z,61.41
2018-08-25T01:25:30.696Z,61.21
2018-08-25T01:27:58.316Z,61.37
2018-08-25T01:30:25.980Z,60.99
2018-08-25T01:32:53.638Z,59.97
2018-08-25T01:35:21.250Z,60.13
2018-08-25T01:37:48.832Z,59.97
2018-08-25T01:40:16.798Z,60.03
2018-08-25T01:42:44.460Z,59.96
2018-08-25T01:45:12.201Z,59.30
2018-08-25T01:47:39.781Z,59.54
2018-08-25T01:50:07.465Z,58.40
2018-08-25T01:52:35.133Z,59.06
2018-08-25T01:55:02.820Z,59.55
2018-08-25T01:57:30.549Z,59.30
2018-08-25T01:59:58.237Z,59.04
2018-08-25T02:02:25.907Z,59.26
2018-08-25T02:04:53.551Z,60.01
2018-08-25T02:07:21.133Z,59.96
2018-08-25T02:09:48.724Z,60.18
2018-08-25T02:12:16.337Z,60.12
2018-08-25T02:14:43.983Z,60.99
2018-08-25T02:17:11.668Z,61.04
2018-08-25T02:19:39.344Z,61.37
2018-08-25T02:22:07.016Z,60.59
2018-08-25T02:24:34.648Z,60.82
2018-08-25T02:27:02.428Z,60.64
2018-08-25T02:29:30.035Z,60.53
2018-08-25T02:31:57.638Z,60.38
2018-08-25T02:34:25.295Z,60.92
2018-08-25T02:36:53.022Z,59.73
2018-08-25T02:39:20.656Z,59.17
2018-08-25T02:41:48.252Z,59.34
2018-08-25T02:44:15.914Z,59.02
2018-08-25T02:46:43.534Z,59.29
2018-08-25T02:49:11.174Z,59.46
2018-08-25T02:51:38.835Z,59.53
2018-08-25T02:54:06.846Z,60.10
2018-08-25T02:56:34.499Z,60.77
2018-08-25T02:59:02.142Z,60.46
2018-08-25T03:01:29.825Z,60.53
2018-08-25T03:03:57.482Z,60.00
2018-08-25T03:06:25.090Z,60.00
2018-08-25T03:08:52.797Z,59.75
2018-08-25T03:11:20.437Z,60.30
2018-08-25T03:13:48.137Z,60.28
2018-08-25T03:16:15.733Z,60.76
2018-08-25T03:18:43.411Z,61.15
2018-08-25T03:21:11.018Z,60.66
2018-08-25T03:23:38.657Z,61.40
2018-08-25T03:26:06.300Z,60.98
2018-08-25T03:28:33.957Z,59.85
2018-08-25T03:31:01.743Z,60.54
2018-08-25T03:33:29.361Z,59.58
2018-08-25T03:35:56.946Z,59.89
2018-08-25T03:38:24.587Z,60.62
2018-08-25T03:40:52.178Z,60.11
2018-08-25T03:43:19.876Z,60.87
2018-08-25T03:45:47.526Z,60.56
2018-08-25T03:48:15.974Z,61.05
2018-08-25T03:50:43.633Z,61.53
2018-08-25T03:53:11.397Z,60.94
2018-08-25T03:55:39.103Z,61.59
2018-08-25T03:58:06.758Z,61.99
2018-08-25T04:00:34.398Z,61.64
2018-08-25T04:03:02.013Z,62.18
2018-08-25T04:05:29.638Z,62.43
2018-08-25T04:07:57.266Z,62.13
2018-08-25T04:10:24.893Z,62.56
2018-08-25T04:12:52.548Z,62.27
2018-08-25T04:15:20.112Z,62.53
2018-08-25T04:17:48.618Z,62.12
2018-08-25T04:20:16.298Z,61.31
2018-08-25T04:22:43.849Z,60.11
2018-08-25T04:25:11.423Z,60.88
2018-08-25T04:27:39.076Z,60.88
2018-08-25T04:30:06.943Z,60.25
2018-08-25T04:32:34.935Z,60.64
2018-08-25T04:35:02.551Z,60.00
2018-08-25T04:37:30.747Z,59.23
2018-08-25T04:39:58.383Z,59.44
2018-08-25T04:42:25.991Z,58.46
2018-08-25T04:44:53.689Z,58.79
2018-08-25T04:47:21.443Z,58.43
2018-08-25T04:49:49.089Z,58.79
2018-08-25T04:52:17.099Z,58.29
2018-08-25T04:54:44.735Z,57.77
2018-08-25T04:57:12.393Z,57.61
2018-08-25T04:59:46.869Z,58.40
2018-08-25T05:02:14.588Z,57.92
2018-08-25T05:04:42.235Z,58.23
2018-08-25T05:07:09.864Z,57.49
2018-08-25T05:09:37.572Z,57.84
2018-08-25T05:12:05.187Z,58.09
2018-08-25T05:14:32.819Z,57.95
2018-08-25T05:17:00.481Z,58.01
2018-08-25T05:19:28.104Z,57.94
2018-08-25T05:21:55.879Z,57.09
2018-08-25T05:24:23.515Z,57.41
2018-08-25T05:26:51.153Z,57.45
2018-08-25T05:29:18.846Z,57.53
2018-08-25T05:31:46.479Z,57.17
2018-08-25T05:34:14.173Z,57.71
2018-08-25T05:36:42.023Z,56.80
2018-08-25T05:39:10.387Z,57.00
2018-08-25T05:41:38.283Z,56.50
2018-08-25T05:44:06.078Z,56.24
2018-08-25T05:46:33.813Z,56.39
2018-08-25T05:49:01.508Z,55.67
2018-08-25T05:51:29.215Z,55.52
2018-08-25T05:53:56.856Z,54.72
2018-08-25T05:56:25.058Z,54.82
2018-08-25T05:58:52.765Z,54.94
2018-08-25T06:01:20.393Z,54.21
2018-08-25T06:03:48.101Z,54.43
2018-08-25T06:06:15.967Z,54.02
2018-08-25T06:08:43.699Z,53.73
2018-08-25T06:11:11.409Z,54.26
2018-08-25T06:13:39.251Z,53.46
2018-08-25T06:16:06.911Z,53.87
2018-08-25T06:18:34.882Z,53.56
2018-08-25T06:21:02.521Z,53.49
2018-08-25T06:23:30.156Z,53.29
2018-08-25T06:25:57.914Z,53.50
2018-08-25T06:28:25.718Z,53.12
2018-08-25T06:30:53.618Z,52.71
2018-08-25T06:33:21.445Z,52.58
2018-08-25T06:35:49.316Z,52.96
2018-08-25T06:38:17.057Z,52.43
2018-08-25T06:40:44.726Z,52.90
2018-08-25T06:43:12.592Z,52.67
2018-08-25T06:45:40.293Z,51.86
2018-08-25T06:48:07.949Z,52.44
2018-08-25T06:50:35.711Z,52.87
2018-08-25T06:53:03.663Z,53.02
2018-08-25T06:55:31.522Z,52.49
2018-08-25T06:57:59.228Z,52.08
2018-08-25T07:00:26.993Z,51.16
2018-08-25T07:02:54.757Z,50.39
2018-08-25T07:05:22.785Z,49.43
2018-08-25T07:07:50.473Z,48.84
2018-08-25T07:10:18.169Z,49.88
2018-08-25T07:12:45.907Z,49.27
2018-08-25T07:15:13.550Z,49.51
2018-08-25T07:17:41.204Z,50.00
2018-08-25T07:20:08.845Z,50.31
2018-08-25T07:22:36.511Z,50.65
2018-08-25T07:25:04.740Z,50.98
2018-08-25T07:27:32.380Z,52.43
2018-08-25T07:30:00.264Z,53.53
2018-08-25T07:32:27.926Z,53.36
2018-08-25T07:34:55.570Z,52.21
2018-08-25T07:37:23.355Z,52.29
2018-08-25T07:39:51.075Z,52.88
2018-08-25T07:42:18.813Z,52.99
2018-08-25T07:44:46.523Z,53.51
2018-08-25T07:47:14.228Z,54.60
2018-08-25T07:49:42.037Z,54.92
2018-08-25T07:52:10.534Z,54.19
2018-08-25T07:54:38.189Z,54.29
2018-08-25T07:57:05.871Z,53.92
2018-08-25T07:59:33.457Z,52.90
2018-08-25T08:02:01.018Z,52.49
2018-08-25T08:04:28.676Z,52.27
2018-08-25T08:06:56.300Z,53.11
2018-08-25T08:09:23.912Z,53.67
2018-08-25T08:11:51.566Z,52.36
2018-08-25T08:14:19.184Z,52.43
2018-08-25T08:16:46.879Z,50.94
2018-08-25T08:19:14.497Z,51.05
2018-08-25T08:21:42.163Z,50.46
2018-08-25T08:24:09.796Z,49.15
2018-08-25T08:26:37.446Z,48.04
2018-08-25T08:29:05.383Z,48.12
2018-08-25T08:31:33.103Z,47.71
2018-08-25T08:34:01.199Z,47.46
2018-08-25T08:36:28.896Z,48.14
2018-08-25T08:38:56.579Z,48.06
2018-08-25T08:41:24.192Z,47.50
2018-08-25T08:43:51.816Z,47.04
2018-08-25T08:46:25.277Z,48.32
2018-08-25T08:48:52.931Z,47.24
2018-08-25T08:51:20.594Z,48.03
2018-08-25T08:53:48.223Z,48.49
2018-08-25T08:56:15.900Z,46.73
2018-08-25T08:58:43.569Z,47.13
2018-08-25T09:01:11.227Z,45.29
2018-08-25T09:03:38.933Z,45.77
2018-08-25T09:06:06.783Z,46.78
2018-08-25T09:08:34.396Z,45.10
2018-08-25T09:11:02.043Z,44.98
2018-08-25T09:13:29.743Z,44.15
2018-08-25T09:15:57.522Z,44.69
2018-08-25T09:18:25.206Z,44.68
2018-08-25T09:20:52.941Z,45.44
2018-08-25T09:23:20.589Z,44.01
2018-08-25T09:25:48.380Z,43.07
2018-08-25T09:28:16.007Z,42.15
2018-08-25T09:30:43.621Z,41.15
2018-08-25T09:33:11.263Z,39.21
2018-08-25T09:35:38.958Z,38.43
2018-08-25T09:38:06.760Z,37.74
2018-08-25T09:40:34.510Z,37.13
2018-08-25T09:43:02.216Z,37.19
2018-08-25T09:45:29.910Z,37.20
2018-08-25T09:47:57.615Z,35.71
2018-08-25T09:50:25.266Z,36.27
2018-08-25T09:52:53.018Z,35.27
2018-08-25T09:55:20.862Z,34.66
2018-08-25T09:57:48.572Z,34.23
2018-08-25T10:00:16.285Z,34.38
2018-08-25T10:02:44.067Z,33.45
2018-08-25T10:05:11.841Z,34.32
2018-08-25T10:07:39.501Z,33.90
2018-08-25T10:10:14.103Z,32.44
2018-08-25T10:12:41.893Z,31.63
2018-08-25T10:15:09.577Z,32.16
2018-08-25T10:17:37.192Z,30.76
2018-08-25T10:20:04.864Z,31.23
2018-08-25T10:22:32.479Z,30.79
2018-08-25T10:25:00.155Z,29.44
2018-08-25T10:27:27.824Z,30.05
2018-08-25T10:29:55.438Z,30.70
2018-08-25T10:32:23.174Z,30.04
2018-08-25T10:34:50.812Z,29.93
2018-08-25T10:37:18.463Z,29.81
2018-08-25T10:39:46.310Z,29.17
2018-08-25T10:42:14.014Z,29.79
2018-08-25T10:44:41.629Z,30.24
2018-08-25T10:47:09.313Z,29.99
2018-08-25T10:49:36.940Z,30.51
2018-08-25T10:52:04.701Z,29.88
2018-08-25T10:54:32.351Z,29.21
2018-08-25T10:57:00.225Z,28.88
2018-08-25T10:59:27.873Z,28.67
2018-08-25T11:01:55.537Z,29.66
2018-08-25T11:04:23.281Z,29.27
2018-08-25T11:06:51.008Z,30.26
2018-08-25T11:09:18.707Z,30.19
2018-08-25T11:11:46.273Z,29.37
2018-08-25T11:14:13.976Z,30.00
2018-08-25T11:16:41.620Z,30.07
2018-08-25T11:19:09.287Z,29.31
2018-08-25T11:21:36.912Z,29.93
2018-08-25T11:24:04.616Z,30.17
2018-08-25T11:26:32.278Z,31.35
2018-08-25T11:28:59.934Z,30.64
2018-08-25T11:31:27.512Z,30.71
2018-08-25T11:33:55.184Z,30.70
2018-08-25T11:36:23.102Z,30.38
2018-08-25T11:38:51.094Z,30.08
2018-08-25T11:41:18.764Z,30.56
2018-08-25T11:43:46.612Z,30.58
2018-08-25T11:46:14.266Z,29.57
2018-08-25T11:48:41.973Z,28.67
2018-08-25T11:51:09.612Z,28.73
2018-08-25T11:53:37.337Z,28.27
2018-08-25T11:56:05.041Z,27.98
2018-08-25T11:58:32.746Z,28.48
2018-08-25T12:01:00.475Z,28.07
2018-08-25T12:03:28.165Z,27.72
2018-08-25T12:05:55.788Z,28.95
2018-08-25T12:08:23.455Z,29.80
2018-08-25T12:10:51.105Z,29.78
2018-08-25T12:13:18.788Z,29.78
2018-08-25T12:15:46.485Z,30.27
2018-08-25T12:18:14.115Z,30.29
2018-08-25T12:20:41.796Z,31.13
2018-08-25T12:23:09.633Z,31.67
2018-08-25T12:25:37.288Z,30.56
2018-08-25T12:28:04.995Z,30.98
2018-08-25T12:30:32.674Z,31.04
2018-08-25T12:33:00.457Z,31.87
2018-08-25T12:35:28.144Z,32.46
2018-08-25T12:37:55.768Z,33.07
2018-08-25T12:40:23.412Z,33.41
2018-08-25T12:42:51.124Z,33.09
2018-08-25T12:45:18.789Z,33.37
2018-08-25T12:47:46.425Z,33.67
2018-08-25T12:50:14.136Z,33.43
2018-08-25T12:52:41.839Z,33.61
2018-08-25T12:55:09.565Z,33.08
2018-08-25T12:57:37.290Z,34.34
2018-08-25T13:00:05.656Z,34.40
2018-08-25T13:03:37.023Z,35.41
2018-08-25T13:06:04.747Z,34.86
2018-08-25T13:08:32.357Z,34.95
2018-08-25T13:11:00.097Z,34.40
2018-08-25T13:13:27.926Z,33.54
2018-08-25T13:15:55.648Z,33.76
2018-08-25T13:18:23.335Z,35.75
2018-08-25T13:20:50.975Z,35.46
2018-08-25T13:23:18.672Z,35.97
2018-08-25T13:25:46.367Z,36.25
2018-08-25T13:28:14.119Z,36.46
2018-08-25T13:30:42.561Z,37.07
2018-08-25T13:33:10.226Z,37.16
2018-08-25T13:35:37.959Z,36.59
2018-08-25T13:38:05.717Z,36.96
2018-08-25T13:40:33.712Z,36.56
2018-08-25T13:43:01.440Z,37.05
2018-08-25T13:45:29.160Z,37.86
2018-08-25T13:47:56.848Z,38.15
2018-08-25T13:50:24.663Z,38.68
2018-08-25T13:52:52.449Z,39.93
2018-08-25T13:55:20.525Z,40.34
2018-08-25T13:57:48.302Z,40.06
2018-08-25T14:00:16.055Z,40.09
2018-08-25T14:02:43.839Z,41.75
2018-08-25T14:05:11.616Z,41.80
2018-08-25T14:07:39.319Z,42.36
2018-08-25T14:10:07.144Z,41.76
2018-08-25T14:12:34.961Z,42.07
2018-08-25T14:15:02.772Z,41.79
2018-08-25T14:17:30.576Z,41.68
2018-08-25T14:19:58.394Z,41.45
2018-08-25T14:22:26.219Z,41.29
2018-08-25T14:24:54.115Z,41.15
2018-08-25T14:27:21.891Z,40.04
2018-08-25T14:29:49.777Z,40.04
2018-08-25T14:32:17.504Z,39.91
2018-08-25T14:34:45.420Z,39.44
2018-08-25T14:37:13.111Z,40.20
2018-08-25T14:39:40.934Z,40.73
2018-08-25T14:44:46.007Z,41.04
2018-08-25T14:47:13.776Z,42.04
2018-08-25T14:49:41.421Z,42.24
2018-08-25T14:52:09.245Z,40.81
2018-08-25T14:54:37.892Z,40.69
2018-08-25T14:57:05.643Z,39.28
2018-08-25T14:59:33.359Z,39.11
2018-08-25T15:02:01.074Z,40.57
2018-08-25T15:04:29.843Z,38.92
2018-08-25T15:06:57.919Z,39.04
2018-08-25T15:09:25.643Z,39.03
2018-08-25T15:11:53.551Z,37.36
2018-08-25T15:14:21.343Z,37.17
2018-08-25T15:16:50.335Z,37.58
2018-08-25T15:19:18.077Z,35.13
2018-08-25T15:21:45.849Z,35.33
2018-08-25T15:24:13.611Z,36.67
2018-08-25T15:26:41.363Z,39.71
2018-08-25T15:29:09.183Z,40.69
2018-08-25T15:31:36.965Z,40.82
2018-08-25T15:34:04.643Z,39.94
2018-08-25T15:36:32.420Z,41.51
2018-08-25T15:39:00.133Z,41.96
2018-08-25T15:41:27.965Z,42.43
2018-08-25T15:43:55.696Z,41.16
2018-08-25T15:46:23.550Z,40.82
2018-08-25T15:48:51.342Z,41.72
2018-08-25T15:51:19.041Z,42.52
2018-08-25T15:53:46.928Z,42.88
2018-08-25T15:56:14.738Z,41.87
2018-08-25T15:58:42.514Z,42.22
2018-08-25T16:01:10.216Z,43.03
2018-08-25T16:03:38.031Z,42.67
2018-08-25T16:06:05.805Z,43.58
2018-08-25T16:08:33.481Z,44.27
2018-08-25T16:11:01.176Z,44.38
2018-08-25T16:13:28.911Z,45.36
2018-08-25T16:15:56.604Z,45.41
2018-08-25T16:18:24.409Z,44.79
2018-08-25T16:20:52.257Z,44.60
2018-08-25T16:23:19.996Z,45.12
2018-08-25T16:25:47.781Z,44.73
2018-08-25T16:28:15.640Z,45.07
2018-08-25T16:30:43.347Z,45.01
2018-08-25T16:33:11.039Z,45.35
2018-08-25T16:35:38.719Z,45.21
2018-08-25T16:38:06.621Z,44.27
2018-08-25T16:40:34.320Z,45.01
2018-08-25T16:43:01.997Z,44.43
2018-08-25T16:45:29.641Z,44.49
2018-08-25T16:47:57.379Z,44.85
2018-08-25T16:50:25.339Z,45.21
2018-08-25T16:52:53.191Z,45.17
2018-08-25T16:55:20.936Z,45.51
2018-08-25T16:57:48.687Z,45.82
2018-08-25T17:00:16.465Z,46.04
2018-08-25T17:02:44.166Z,45.74
2018-08-25T17:05:11.796Z,46.15
2018-08-25T17:07:39.520Z,46.11
2018-08-25T17:10:07.261Z,46.34
2018-08-25T17:12:35.040Z,46.54
2018-08-25T17:15:02.756Z,47.02
2018-08-25T17:17:30.562Z,46.26
2018-08-25T17:19:58.179Z,47.19
2018-08-25T17:22:25.764Z,46.67
2018-08-25T17:24:53.484Z,47.11
2018-08-25T17:27:21.676Z,47.69
2018-08-25T17:29:49.520Z,47.78
2018-08-25T17:32:17.194Z,47.92
2018-08-25T17:34:44.908Z,47.76
2018-08-25T17:37:12.696Z,48.16
2018-08-25T17:39:40.708Z,48.37
2018-08-25T17:42:10.599Z,47.84
2018-08-25T17:44:38.275Z,48.17
2018-08-25T17:47:05.998Z,47.60
2018-08-25T17:49:33.686Z,47.66
2018-08-25T17:52:01.471Z,48.00
2018-08-25T17:54:29.245Z,48.23
2018-08-25T17:56:56.999Z,47.93
2018-08-25T17:59:24.598Z,47.62
2018-08-25T18:01:52.310Z,47.88
2018-08-25T18:04:19.961Z,48.28
2018-08-25T18:06:47.723Z,48.49
2018-08-25T18:09:15.435Z,49.30
2018-08-25T18:11:49.802Z,49.30
2018-08-25T18:14:17.549Z,49.89
2018-08-25T18:16:45.203Z,49.48
2018-08-25T18:19:12.890Z,49.50
2018-08-25T18:21:40.604Z,49.37
2018-08-25T18:24:08.332Z,49.77
2018-08-25T18:26:36.126Z,49.66
2018-08-25T18:29:03.942Z,49.65
2018-08-25T18:31:31.614Z,49.97
2018-08-25T18:33:59.319Z,51.00
2018-08-25T18:36:27.048Z,50.97
2018-08-25T18:38:54.815Z,51.43
2018-08-25T18:41:22.538Z,51.35
2018-08-25T18:43:50.280Z,51.23
2018-08-25T18:46:18.277Z,52.17
2018-08-25T18:48:46.121Z,51.63
2018-08-25T18:51:14.042Z,52.03
2018-08-25T18:53:42.104Z,51.40
2018-08-25T18:56:10.111Z,51.80
2018-08-25T18:58:38.003Z,51.67
2018-08-25T19:01:05.906Z,51.45
2018-08-25T19:03:33.901Z,50.63
2018-08-25T19:06:01.559Z,51.08
2018-08-25T19:08:29.261Z,50.61
2018-08-25T19:10:57.079Z,51.01
2018-08-25T19:13:24.782Z,51.07
2018-08-25T19:15:52.507Z,50.38
2018-08-25T19:18:20.127Z,50.54
2018-08-25T19:20:47.803Z,50.82
2018-08-25T19:23:15.612Z,50.98
2018-08-25T19:25:43.309Z,50.99
2018-08-25T19:28:11.011Z,51.58
2018-08-25T19:30:38.747Z,52.13
2018-08-25T19:33:06.931Z,51.77
2018-08-25T19:35:34.673Z,51.80
2018-08-25T19:38:02.363Z,51.92
2018-08-25T19:40:30.135Z,51.87
2018-08-25T19:42:57.895Z,52.16
2018-08-25T19:45:25.658Z,51.90
2018-08-25T19:47:53.896Z,52.92
2018-08-25T19:50:21.679Z,52.64
2018-08-25T19:52:49.562Z,52.79
2018-08-25T19:55:17.325Z,52.66
2018-08-25T19:57:45.012Z,52.58
2018-08-25T20:00:12.783Z,52.43
2018-08-25T20:02:40.419Z,52.79
2018-08-25T20:05:08.140Z,52.25
2018-08-25T20:07:35.869Z,52.48
2018-08-25T20:10:03.679Z,52.32
2018-08-25T20:12:31.348Z,51.91
2018-08-25T20:14:59.202Z,52.10
2018-08-25T20:17:26.927Z,51.26
2018-08-25T20:19:54.930Z,51.50
2018-08-25T20:22:22.680Z,50.46
2018-08-25T20:24:50.416Z,50.72
2018-08-25T20:27:19.214Z,50.60
2018-08-25T20:29:46.917Z,50.68
2018-08-25T20:32:14.638Z,51.16
2018-08-25T20:34:42.473Z,50.68
2018-08-25T20:37:10.196Z,50.61
2018-08-25T20:39:37.943Z,51.08
2018-08-25T20:42:05.648Z,50.68
2018-08-25T20:44:33.584Z,50.77
2018-08-25T20:47:01.646Z,51.55
2018-08-25T20:49:29.294Z,51.17
2018-08-25T20:51:57.127Z,51.17
2018-08-25T20:54:24.959Z,51.13
2018-08-25T20:56:52.889Z,51.67
2018-08-25T20:59:21.719Z,51.73
2018-08-25T21:01:49.436Z,51.57
2018-08-25T21:04:17.093Z,51.72
2018-08-25T21:06:44.837Z,52.33
2018-08-25T21:09:12.500Z,51.86
2018-08-25T21:11:40.235Z,51.54
2018-08-25T21:14:08.049Z,51.64
2018-08-25T21:16:35.751Z,51.63
2018-08-25T21:19:03.501Z,51.31
2018-08-25T21:21:31.254Z,51.79
2018-08-25T21:23:59.063Z,51.97
2018-08-25T21:26:26.789Z,51.96
2018-08-25T21:28:54.592Z,51.83
2018-08-25T21:31:22.318Z,52.17
2018-08-25T21:33:50.113Z,52.30
2018-08-25T21:36:17.840Z,51.78
2018-08-25T21:38:45.589Z,51.71
2018-08-25T21:41:13.270Z,52.05
2018-08-25T21:43:40.984Z,52.14
2018-08-25T21:46:09.330Z,52.12
2018-08-25T21:48:37.040Z,52.26
2018-08-25T21:51:04.820Z,51.93
2018-08-25T21:53:32.467Z,51.95
2018-08-25T21:56:00.258Z,52.12
2018-08-25T21:58:27.990Z,52.83
2018-08-25T22:00:56.716Z,52.76
2018-08-25T22:03:25.537Z,52.61
2018-08-25T22:05:54.616Z,52.83
2018-08-25T22:08:22.658Z,53.58
2018-08-25T22:10:50.954Z,53.05
2018-08-25T22:13:18.652Z,53.63
2018-08-25T22:15:46.566Z,53.43
2018-08-25T22:18:14.237Z,53.25
2018-08-25T22:20:41.978Z,53.65
2018-08-25T22:23:09.727Z,53.79
2018-08-25T22:25:37.468Z,53.89
2018-08-25T22:28:05.206Z,53.92
2018-08-25T22:30:32.972Z,54.63
2018-08-25T22:33:00.726Z,54.48
2018-08-25T22:35:28.660Z,55.04
2018-08-25T22:37:56.500Z,55.40
2018-08-25T22:40:24.138Z,55.58
2018-08-25T22:42:51.862Z,55.10
2018-08-25T22:45:19.638Z,55.73
2018-08-25T22:47:47.342Z,55.43
2018-08-25T22:50:15.072Z,55.78
2018-08-25T22:52:48.408Z,56.01
2018-08-25T22:55:16.182Z,56.97
2018-08-25T22:57:43.838Z,57.31
2018-08-25T23:00:11.518Z,56.82
2018-08-25T23:02:40.424Z,57.43
2018-08-25T23:05:08.298Z,57.57
2018-08-25T23:07:36.074Z,57.60
2018-08-25T23:10:04.427Z,57.25
2018-08-25T23:12:32.596Z,58.20
2018-08-25T23:15:00.386Z,57.76
2018-08-25T23:17:28.111Z,58.15
2018-08-25T23:19:55.796Z,57.93
2018-08-25T23:22:23.799Z,58.21
2018-08-25T23:24:51.482Z,58.36
2018-08-25T23:27:19.210Z,58.71
2018-08-25T23:29:46.988Z,59.11
2018-08-25T23:32:14.591Z,59.07
2018-08-25T23:34:42.428Z,58.42
2018-08-25T23:37:10.135Z,59.32
2018-08-25T23:39:37.818Z,58.67
2018-08-25T23:42:06.014Z,58.57
2018-08-25T23:44:33.693Z,58.48
2018-08-25T23:47:01.666Z,58.72
2018-08-25T23:49:29.351Z,58.58
2018-08-25T23:51:57.255Z,59.05
2018-08-25T23:54:24.920Z,58.81
2018-08-25T23:56:52.683Z,59.24
2018-08-25T23:59:20.435Z,59.33
